Hanson, Texas
Current Conditions -  °F | °C
As of 8:18 AM on Friday 19 Dec 2014 (Local Time) from KSHV Reporting Station
Heavy Rain Heavy Rain  
Wind Chill: 42°   Ceiling: 3400
Heat Index: 47°   Visibility: 2.5mi
Dew Point: 46°   Wind: 12mph
Humidity: 97%   Direction: 40°NE
Pressure: 30.15"   Gusts: NA
Location:  31.9194°N, 94.0667°W
Report Text: KSHV 191418Z 04010KT 2 1/2SM +RA BR FEW006 BKN034 OVC040 08/08 A3015 RMK AO2 TSE18 TS DISSIPATED P0020 T00830078
Loading
Personal Weather Stations






























Interactive Weather Map New forecast layout! Learn more

10-Day Weather Forecast

Advertisements
Track Severe Weather on mobile